sensor_id;sensor_type;location;lat;lon;timestamp;P1;durP1;ratioP1;P2;durP2;ratioP2
4762;SDS011;2395;50.738;7.122;2022-08-19T00:00:36;17.90;;;16.10;;
4762;SDS011;2395;50.738;7.122;2022-08-19T00:03:03;16.77;;;15.10;;
4762;SDS011;2395;50.738;7.122;2022-08-19T00:05:33;18.43;;;16.63;;
4762;SDS011;2395;50.738;7.122;2022-08-19T00:08:00;14.97;;;13.57;;
4762;SDS011;2395;50.738;7.122;2022-08-19T00:10:28;16.27;;;14.10;;
4762;SDS011;2395;50.738;7.122;2022-08-19T00:12:55;14.70;;;13.10;;
4762;SDS011;2395;50.738;7.122;2022-08-19T00:15:22;15.83;;;13.00;;
4762;SDS011;2395;50.738;7.122;2022-08-19T00:17:49;15.27;;;12.50;;
4762;SDS011;2395;50.738;7.122;2022-08-19T00:20:17;15.90;;;11.77;;
4762;SDS011;2395;50.738;7.122;2022-08-19T00:22:47;14.60;;;12.07;;
4762;SDS011;2395;50.738;7.122;2022-08-19T00:25:15;15.57;;;12.23;;
4762;SDS011;2395;50.738;7.122;2022-08-19T00:27:43;16.07;;;14.43;;
4762;SDS011;2395;50.738;7.122;2022-08-19T00:30:10;14.27;;;11.50;;
4762;SDS011;2395;50.738;7.122;2022-08-19T00:32:38;15.80;;;11.40;;
4762;SDS011;2395;50.738;7.122;2022-08-19T00:35:06;12.03;;;10.73;;
4762;SDS011;2395;50.738;7.122;2022-08-19T00:37:35;12.33;;;11.03;;
4762;SDS011;2395;50.738;7.122;2022-08-19T00:40:06;12.30;;;11.00;;
4762;SDS011;2395;50.738;7.122;2022-08-19T00:42:34;13.30;;;12.00;;
4762;SDS011;2395;50.738;7.122;2022-08-19T00:45:01;12.30;;;11.00;;
4762;SDS011;2395;50.738;7.122;2022-08-19T00:47:36;15.73;;;10.90;;
4762;SDS011;2395;50.738;7.122;2022-08-19T00:50:04;11.77;;;10.07;;
4762;SDS011;2395;50.738;7.122;2022-08-19T00:52:35;14.33;;;10.70;;
4762;SDS011;2395;50.738;7.122;2022-08-19T00:55:12;11.50;;;10.30;;
4762;SDS011;2395;50.738;7.122;2022-08-19T00:57:47;13.17;;;11.40;;
4762;SDS011;2395;50.738;7.122;2022-08-19T01:00:21;12.10;;;10.80;;
4762;SDS011;2395;50.738;7.122;2022-08-19T01:02:51;12.77;;;11.37;;
4762;SDS011;2395;50.738;7.122;2022-08-19T01:05:20;12.53;;;10.77;;
4762;SDS011;2395;50.738;7.122;2022-08-19T01:07:52;17.93;;;12.43;;
4762;SDS011;2395;50.738;7.122;2022-08-19T01:10:23;21.20;;;13.80;;
4762;SDS011;2395;50.738;7.122;2022-08-19T01:12:54;15.47;;;13.90;;
4762;SDS011;2395;50.738;7.122;2022-08-19T01:15:26;16.27;;;14.47;;
4762;SDS011;2395;50.738;7.122;2022-08-19T01:17:57;14.93;;;13.43;;
4762;SDS011;2395;50.738;7.122;2022-08-19T01:20:28;15.60;;;14.03;;
4762;SDS011;2395;50.738;7.122;2022-08-19T01:22:58;16.97;;;14.73;;
4762;SDS011;2395;50.738;7.122;2022-08-19T01:25:26;15.83;;;14.20;;
4762;SDS011;2395;50.738;7.122;2022-08-19T01:27:59;17.33;;;15.37;;
4762;SDS011;2395;50.738;7.122;2022-08-19T01:30:27;16.87;;;15.10;;
4762;SDS011;2395;50.738;7.122;2022-08-19T01:32:56;14.70;;;13.20;;
4762;SDS011;2395;50.738;7.122;2022-08-19T01:35:26;15.63;;;14.13;;
4762;SDS011;2395;50.738;7.122;2022-08-19T01:37:59;15.00;;;13.43;;
4762;SDS011;2395;50.738;7.122;2022-08-19T01:40:33;15.63;;;14.10;;
4762;SDS011;2395;50.738;7.122;2022-08-19T01:43:05;14.87;;;13.37;;
4762;SDS011;2395;50.738;7.122;2022-08-19T01:45:33;17.17;;;15.37;;
4762;SDS011;2395;50.738;7.122;2022-08-19T01:48:03;16.50;;;15.00;;
4762;SDS011;2395;50.738;7.122;2022-08-19T01:50:30;16.33;;;14.17;;
4762;SDS011;2395;50.738;7.122;2022-08-19T01:53:00;15.67;;;14.17;;
4762;SDS011;2395;50.738;7.122;2022-08-19T01:55:30;16.00;;;14.10;;
4762;SDS011;2395;50.738;7.122;2022-08-19T01:57:58;14.33;;;12.90;;
4762;SDS011;2395;50.738;7.122;2022-08-19T02:00:31;46.53;;;15.40;;
4762;SDS011;2395;50.738;7.122;2022-08-19T02:02:59;14.77;;;13.17;;
4762;SDS011;2395;50.738;7.122;2022-08-19T02:05:26;15.20;;;13.60;;
4762;SDS011;2395;50.738;7.122;2022-08-19T02:07:55;15.93;;;13.90;;
4762;SDS011;2395;50.738;7.122;2022-08-19T02:10:23;20.83;;;14.97;;
4762;SDS011;2395;50.738;7.122;2022-08-19T02:12:51;16.10;;;14.47;;
4762;SDS011;2395;50.738;7.122;2022-08-19T02:15:18;15.10;;;13.70;;
4762;SDS011;2395;50.738;7.122;2022-08-19T02:17:47;15.23;;;13.80;;
4762;SDS011;2395;50.738;7.122;2022-08-19T02:20:14;16.03;;;14.23;;
4762;SDS011;2395;50.738;7.122;2022-08-19T02:22:42;16.17;;;14.63;;
4762;SDS011;2395;50.738;7.122;2022-08-19T02:25:10;15.23;;;13.60;;
4762;SDS011;2395;50.738;7.122;2022-08-19T02:27:41;19.43;;;14.80;;
4762;SDS011;2395;50.738;7.122;2022-08-19T02:30:10;14.73;;;13.30;;
4762;SDS011;2395;50.738;7.122;2022-08-19T02:32:43;17.43;;;13.70;;
4762;SDS011;2395;50.738;7.122;2022-08-19T02:35:11;15.80;;;14.10;;
4762;SDS011;2395;50.738;7.122;2022-08-19T02:37:40;14.83;;;13.33;;
4762;SDS011;2395;50.738;7.122;2022-08-19T02:40:25;16.33;;;14.73;;
4762;SDS011;2395;50.738;7.122;2022-08-19T02:42:54;17.53;;;14.40;;
4762;SDS011;2395;50.738;7.122;2022-08-19T02:45:21;17.10;;;13.80;;
4762;SDS011;2395;50.738;7.122;2022-08-19T02:47:48;16.27;;;14.53;;
4762;SDS011;2395;50.738;7.122;2022-08-19T02:50:15;15.53;;;14.03;;
4762;SDS011;2395;50.738;7.122;2022-08-19T02:52:43;15.60;;;13.67;;
4762;SDS011;2395;50.738;7.122;2022-08-19T02:55:11;14.90;;;13.20;;
4762;SDS011;2395;50.738;7.122;2022-08-19T02:57:37;15.83;;;14.23;;
4762;SDS011;2395;50.738;7.122;2022-08-19T03:00:06;16.27;;;14.60;;
4762;SDS011;2395;50.738;7.122;2022-08-19T03:02:37;16.33;;;14.67;;
4762;SDS011;2395;50.738;7.122;2022-08-19T03:05:04;17.00;;;14.67;;
4762;SDS011;2395;50.738;7.122;2022-08-19T03:07:34;15.67;;;14.10;;
4762;SDS011;2395;50.738;7.122;2022-08-19T03:10:01;15.47;;;13.87;;
4762;SDS011;2395;50.738;7.122;2022-08-19T03:12:29;17.10;;;14.50;;
4762;SDS011;2395;50.738;7.122;2022-08-19T03:14:56;15.10;;;13.50;;
4762;SDS011;2395;50.738;7.122;2022-08-19T03:17:24;15.83;;;14.20;;
4762;SDS011;2395;50.738;7.122;2022-08-19T03:19:51;15.50;;;13.90;;
4762;SDS011;2395;50.738;7.122;2022-08-19T03:22:18;16.50;;;14.90;;
4762;SDS011;2395;50.738;7.122;2022-08-19T03:24:45;15.77;;;14.27;;
4762;SDS011;2395;50.738;7.122;2022-08-19T03:27:12;15.20;;;13.63;;
4762;SDS011;2395;50.738;7.122;2022-08-19T03:29:39;15.43;;;13.93;;
4762;SDS011;2395;50.738;7.122;2022-08-19T03:32:06;15.50;;;13.90;;
4762;SDS011;2395;50.738;7.122;2022-08-19T03:34:36;16.00;;;14.40;;
4762;SDS011;2395;50.738;7.122;2022-08-19T03:37:05;15.73;;;13.50;;
4762;SDS011;2395;50.738;7.122;2022-08-19T03:39:35;15.47;;;13.87;;
4762;SDS011;2395;50.738;7.122;2022-08-19T03:42:04;17.00;;;15.00;;
4762;SDS011;2395;50.738;7.122;2022-08-19T03:44:31;19.33;;;16.10;;
4762;SDS011;2395;50.738;7.122;2022-08-19T03:47:01;18.93;;;16.93;;
4762;SDS011;2395;50.738;7.122;2022-08-19T03:49:29;23.27;;;20.87;;
4762;SDS011;2395;50.738;7.122;2022-08-19T03:52:01;23.57;;;21.37;;
4762;SDS011;2395;50.738;7.122;2022-08-19T03:54:32;19.87;;;17.77;;
4762;SDS011;2395;50.738;7.122;2022-08-19T03:56:59;20.37;;;18.00;;
4762;SDS011;2395;50.738;7.122;2022-08-19T03:59:28;24.47;;;20.63;;
4762;SDS011;2395;50.738;7.122;2022-08-19T04:01:59;24.83;;;22.33;;
4762;SDS011;2395;50.738;7.122;2022-08-19T04:04:29;25.00;;;22.43;;
4762;SDS011;2395;50.738;7.122;2022-08-19T04:06:56;29.20;;;25.17;;
4762;SDS011;2395;50.738;7.122;2022-08-19T04:09:24;28.60;;;25.70;;
4762;SDS011;2395;50.738;7.122;2022-08-19T04:11:53;19.20;;;17.20;;
4762;SDS011;2395;50.738;7.122;2022-08-19T04:14:23;29.27;;;25.30;;
4762;SDS011;2395;50.738;7.122;2022-08-19T04:16:53;27.07;;;24.37;;
4762;SDS011;2395;50.738;7.122;2022-08-19T04:19:21;27.47;;;24.47;;
4762;SDS011;2395;50.738;7.122;2022-08-19T04:21:48;27.53;;;24.80;;
4762;SDS011;2395;50.738;7.122;2022-08-19T04:24:19;29.17;;;26.13;;
4762;SDS011;2395;50.738;7.122;2022-08-19T04:26:49;26.87;;;23.77;;
4762;SDS011;2395;50.738;7.122;2022-08-19T04:29:17;30.50;;;27.50;;
4762;SDS011;2395;50.738;7.122;2022-08-19T04:31:50;22.93;;;20.63;;
4762;SDS011;2395;50.738;7.122;2022-08-19T04:34:19;22.97;;;20.37;;
4762;SDS011;2395;50.738;7.122;2022-08-19T04:36:50;23.80;;;20.40;;
4762;SDS011;2395;50.738;7.122;2022-08-19T04:39:20;23.10;;;20.17;;
4762;SDS011;2395;50.738;7.122;2022-08-19T04:42:10;22.90;;;20.57;;
4762;SDS011;2395;50.738;7.122;2022-08-19T04:44:55;23.10;;;20.70;;
4762;SDS011;2395;50.738;7.122;2022-08-19T04:47:23;23.10;;;20.70;;
4762;SDS011;2395;50.738;7.122;2022-08-19T04:49:50;20.73;;;18.47;;
4762;SDS011;2395;50.738;7.122;2022-08-19T04:52:17;22.00;;;19.60;;
4762;SDS011;2395;50.738;7.122;2022-08-19T04:54:44;34.07;;;30.43;;
4762;SDS011;2395;50.738;7.122;2022-08-19T04:57:13;34.47;;;30.70;;
4762;SDS011;2395;50.738;7.122;2022-08-19T04:59:40;35.70;;;31.50;;
4762;SDS011;2395;50.738;7.122;2022-08-19T05:02:07;35.27;;;31.83;;
4762;SDS011;2395;50.738;7.122;2022-08-19T05:04:35;36.40;;;32.43;;
4762;SDS011;2395;50.738;7.122;2022-08-19T05:07:04;39.00;;;34.10;;
4762;SDS011;2395;50.738;7.122;2022-08-19T05:09:31;42.33;;;35.47;;
4762;SDS011;2395;50.738;7.122;2022-08-19T05:11:58;39.80;;;35.60;;
4762;SDS011;2395;50.738;7.122;2022-08-19T05:14:27;40.30;;;35.70;;
4762;SDS011;2395;50.738;7.122;2022-08-19T05:16:54;41.63;;;37.03;;
4762;SDS011;2395;50.738;7.122;2022-08-19T05:19:21;40.47;;;36.17;;
4762;SDS011;2395;50.738;7.122;2022-08-19T05:22:05;43.73;;;37.63;;
4762;SDS011;2395;50.738;7.122;2022-08-19T05:24:50;41.97;;;37.57;;
4762;SDS011;2395;50.738;7.122;2022-08-19T05:27:17;40.93;;;36.17;;
4762;SDS011;2395;50.738;7.122;2022-08-19T05:29:45;40.63;;;35.93;;
4762;SDS011;2395;50.738;7.122;2022-08-19T05:32:12;45.03;;;38.23;;
4762;SDS011;2395;50.738;7.122;2022-08-19T05:34:41;42.57;;;38.03;;
4762;SDS011;2395;50.738;7.122;2022-08-19T05:37:09;42.03;;;37.53;;
4762;SDS011;2395;50.738;7.122;2022-08-19T05:39:39;42.20;;;37.53;;
4762;SDS011;2395;50.738;7.122;2022-08-19T05:42:07;42.40;;;38.00;;
4762;SDS011;2395;50.738;7.122;2022-08-19T05:44:39;46.10;;;39.63;;
4762;SDS011;2395;50.738;7.122;2022-08-19T05:47:10;46.37;;;40.50;;
4762;SDS011;2395;50.738;7.122;2022-08-19T05:49:39;43.30;;;38.63;;
4762;SDS011;2395;50.738;7.122;2022-08-19T05:52:08;42.90;;;38.30;;
4762;SDS011;2395;50.738;7.122;2022-08-19T05:54:38;46.50;;;41.40;;
4762;SDS011;2395;50.738;7.122;2022-08-19T05:57:08;43.67;;;39.03;;
4762;SDS011;2395;50.738;7.122;2022-08-19T05:59:36;43.30;;;38.60;;
4762;SDS011;2395;50.738;7.122;2022-08-19T06:02:03;47.73;;;40.00;;
4762;SDS011;2395;50.738;7.122;2022-08-19T06:04:33;45.60;;;40.60;;
4762;SDS011;2395;50.738;7.122;2022-08-19T06:07:00;45.73;;;40.37;;
4762;SDS011;2395;50.738;7.122;2022-08-19T06:09:28;43.80;;;39.33;;
4762;SDS011;2395;50.738;7.122;2022-08-19T06:11:56;43.13;;;38.47;;
4762;SDS011;2395;50.738;7.122;2022-08-19T06:14:26;46.13;;;41.00;;
4762;SDS011;2395;50.738;7.122;2022-08-19T06:16:56;45.40;;;39.30;;
4762;SDS011;2395;50.738;7.122;2022-08-19T06:19:26;45.43;;;40.53;;
4762;SDS011;2395;50.738;7.122;2022-08-19T06:21:57;44.90;;;40.00;;
4762;SDS011;2395;50.738;7.122;2022-08-19T06:24:26;47.27;;;40.60;;
4762;SDS011;2395;50.738;7.122;2022-08-19T06:26:57;45.70;;;40.80;;
4762;SDS011;2395;50.738;7.122;2022-08-19T06:29:26;49.43;;;43.00;;
4762;SDS011;2395;50.738;7.122;2022-08-19T06:31:55;47.57;;;42.57;;
4762;SDS011;2395;50.738;7.122;2022-08-19T06:34:25;54.83;;;43.80;;
4762;SDS011;2395;50.738;7.122;2022-08-19T06:36:55;46.13;;;40.73;;
4762;SDS011;2395;50.738;7.122;2022-08-19T06:39:28;47.63;;;42.37;;
4762;SDS011;2395;50.738;7.122;2022-08-19T06:41:59;47.47;;;41.00;;
4762;SDS011;2395;50.738;7.122;2022-08-19T06:44:31;52.60;;;45.03;;
4762;SDS011;2395;50.738;7.122;2022-08-19T06:47:02;49.67;;;43.20;;
4762;SDS011;2395;50.738;7.122;2022-08-19T06:49:31;52.00;;;44.60;;
4762;SDS011;2395;50.738;7.122;2022-08-19T06:52:00;50.23;;;42.90;;
4762;SDS011;2395;50.738;7.122;2022-08-19T06:54:29;54.80;;;44.17;;
4762;SDS011;2395;50.738;7.122;2022-08-19T06:56:56;51.80;;;45.07;;
4762;SDS011;2395;50.738;7.122;2022-08-19T06:59:27;51.53;;;38.67;;
4762;SDS011;2395;50.738;7.122;2022-08-19T07:01:58;50.60;;;43.30;;
4762;SDS011;2395;50.738;7.122;2022-08-19T07:04:30;50.27;;;40.83;;
4762;SDS011;2395;50.738;7.122;2022-08-19T07:06:59;50.70;;;41.00;;
4762;SDS011;2395;50.738;7.122;2022-08-19T07:09:32;47.93;;;42.00;;
4762;SDS011;2395;50.738;7.122;2022-08-19T07:12:02;50.77;;;41.17;;
4762;SDS011;2395;50.738;7.122;2022-08-19T07:14:31;50.13;;;41.17;;
4762;SDS011;2395;50.738;7.122;2022-08-19T07:17:03;52.20;;;42.17;;
4762;SDS011;2395;50.738;7.122;2022-08-19T07:19:34;51.23;;;42.03;;
4762;SDS011;2395;50.738;7.122;2022-08-19T07:22:06;49.40;;;41.53;;
4762;SDS011;2395;50.738;7.122;2022-08-19T07:24:34;51.47;;;40.77;;
4762;SDS011;2395;50.738;7.122;2022-08-19T07:27:04;54.50;;;37.60;;
4762;SDS011;2395;50.738;7.122;2022-08-19T07:29:34;42.57;;;35.87;;
4762;SDS011;2395;50.738;7.122;2022-08-19T07:32:02;49.40;;;36.20;;
4762;SDS011;2395;50.738;7.122;2022-08-19T07:34:31;46.33;;;39.00;;
4762;SDS011;2395;50.738;7.122;2022-08-19T07:37:02;42.23;;;35.03;;
4762;SDS011;2395;50.738;7.122;2022-08-19T07:39:32;43.20;;;36.50;;
4762;SDS011;2395;50.738;7.122;2022-08-19T07:42:04;43.03;;;35.73;;
4762;SDS011;2395;50.738;7.122;2022-08-19T07:44:35;46.43;;;37.53;;
4762;SDS011;2395;50.738;7.122;2022-08-19T07:47:03;45.80;;;37.13;;
4762;SDS011;2395;50.738;7.122;2022-08-19T07:49:31;51.43;;;37.23;;
4762;SDS011;2395;50.738;7.122;2022-08-19T07:52:00;39.47;;;31.93;;
4762;SDS011;2395;50.738;7.122;2022-08-19T07:54:39;46.17;;;34.53;;
4762;SDS011;2395;50.738;7.122;2022-08-19T07:57:06;39.70;;;32.37;;
4762;SDS011;2395;50.738;7.122;2022-08-19T07:59:34;42.17;;;31.43;;
4762;SDS011;2395;50.738;7.122;2022-08-19T08:02:02;35.83;;;30.53;;
4762;SDS011;2395;50.738;7.122;2022-08-19T08:04:30;43.00;;;30.67;;
4762;SDS011;2395;50.738;7.122;2022-08-19T08:07:15;38.63;;;30.07;;
4762;SDS011;2395;50.738;7.122;2022-08-19T08:10:01;38.97;;;29.60;;
4762;SDS011;2395;50.738;7.122;2022-08-19T08:12:36;38.27;;;31.30;;
4762;SDS011;2395;50.738;7.122;2022-08-19T08:15:08;43.17;;;30.60;;
4762;SDS011;2395;50.738;7.122;2022-08-19T08:17:41;37.70;;;30.80;;
4762;SDS011;2395;50.738;7.122;2022-08-19T08:20:09;37.47;;;27.10;;
4762;SDS011;2395;50.738;7.122;2022-08-19T08:22:42;34.73;;;27.43;;
4762;SDS011;2395;50.738;7.122;2022-08-19T08:25:29;30.07;;;24.80;;
4762;SDS011;2395;50.738;7.122;2022-08-19T08:27:57;35.87;;;25.53;;
4762;SDS011;2395;50.738;7.122;2022-08-19T08:30:25;31.07;;;25.73;;
4762;SDS011;2395;50.738;7.122;2022-08-19T08:32:57;35.03;;;25.50;;
4762;SDS011;2395;50.738;7.122;2022-08-19T08:35:24;31.80;;;25.87;;
4762;SDS011;2395;50.738;7.122;2022-08-19T08:37:52;30.97;;;23.17;;
4762;SDS011;2395;50.738;7.122;2022-08-19T08:40:23;32.33;;;24.10;;
4762;SDS011;2395;50.738;7.122;2022-08-19T08:43:04;35.40;;;28.13;;
4762;SDS011;2395;50.738;7.122;2022-08-19T08:45:44;35.63;;;27.57;;
4762;SDS011;2395;50.738;7.122;2022-08-19T08:48:18;35.07;;;25.20;;
4762;SDS011;2395;50.738;7.122;2022-08-19T08:50:51;32.47;;;25.20;;
4762;SDS011;2395;50.738;7.122;2022-08-19T08:53:23;28.53;;;19.83;;
4762;SDS011;2395;50.738;7.122;2022-08-19T08:55:54;24.90;;;19.70;;
4762;SDS011;2395;50.738;7.122;2022-08-19T08:58:26;23.60;;;17.00;;
4762;SDS011;2395;50.738;7.122;2022-08-19T09:01:08;27.10;;;20.67;;
4762;SDS011;2395;50.738;7.122;2022-08-19T09:03:37;28.33;;;21.10;;
4762;SDS011;2395;50.738;7.122;2022-08-19T09:06:11;27.13;;;21.37;;
4762;SDS011;2395;50.738;7.122;2022-08-19T09:08:48;29.00;;;23.07;;
4762;SDS011;2395;50.738;7.122;2022-08-19T09:11:31;27.20;;;23.03;;
4762;SDS011;2395;50.738;7.122;2022-08-19T09:14:12;30.10;;;23.67;;
4762;SDS011;2395;50.738;7.122;2022-08-19T09:16:57;34.67;;;27.63;;
4762;SDS011;2395;50.738;7.122;2022-08-19T09:19:25;34.53;;;27.10;;
4762;SDS011;2395;50.738;7.122;2022-08-19T09:21:52;32.80;;;25.57;;
4762;SDS011;2395;50.738;7.122;2022-08-19T09:24:19;36.13;;;26.97;;
4762;SDS011;2395;50.738;7.122;2022-08-19T09:26:48;38.47;;;26.60;;
4762;SDS011;2395;50.738;7.122;2022-08-19T09:29:14;40.50;;;30.97;;
4762;SDS011;2395;50.738;7.122;2022-08-19T09:31:41;36.50;;;28.57;;
4762;SDS011;2395;50.738;7.122;2022-08-19T09:34:08;38.17;;;29.87;;
4762;SDS011;2395;50.738;7.122;2022-08-19T09:36:36;37.63;;;28.43;;
4762;SDS011;2395;50.738;7.122;2022-08-19T09:39:04;39.10;;;29.00;;
4762;SDS011;2395;50.738;7.122;2022-08-19T09:41:32;44.60;;;33.03;;
4762;SDS011;2395;50.738;7.122;2022-08-19T09:44:01;45.97;;;34.67;;
4762;SDS011;2395;50.738;7.122;2022-08-19T09:46:28;40.47;;;33.00;;
4762;SDS011;2395;50.738;7.122;2022-08-19T09:48:57;41.33;;;32.57;;
4762;SDS011;2395;50.738;7.122;2022-08-19T09:51:26;47.07;;;37.37;;
4762;SDS011;2395;50.738;7.122;2022-08-19T09:53:54;48.23;;;34.40;;
4762;SDS011;2395;50.738;7.122;2022-08-19T09:56:26;42.43;;;33.00;;
4762;SDS011;2395;50.738;7.122;2022-08-19T09:58:54;43.47;;;32.00;;
4762;SDS011;2395;50.738;7.122;2022-08-19T10:01:23;44.63;;;34.67;;
4762;SDS011;2395;50.738;7.122;2022-08-19T10:03:56;47.47;;;33.93;;
4762;SDS011;2395;50.738;7.122;2022-08-19T10:06:26;41.30;;;32.23;;
4762;SDS011;2395;50.738;7.122;2022-08-19T10:08:57;45.67;;;31.80;;
4762;SDS011;2395;50.738;7.122;2022-08-19T10:11:25;43.43;;;33.10;;
4762;SDS011;2395;50.738;7.122;2022-08-19T10:13:54;49.93;;;36.50;;
4762;SDS011;2395;50.738;7.122;2022-08-19T10:16:22;41.33;;;31.13;;
4762;SDS011;2395;50.738;7.122;2022-08-19T10:18:50;43.90;;;34.07;;
4762;SDS011;2395;50.738;7.122;2022-08-19T10:21:20;45.30;;;35.03;;
4762;SDS011;2395;50.738;7.122;2022-08-19T10:23:51;39.60;;;32.90;;
4762;SDS011;2395;50.738;7.122;2022-08-19T10:26:22;41.90;;;31.43;;
4762;SDS011;2395;50.738;7.122;2022-08-19T10:28:51;39.17;;;32.77;;
4762;SDS011;2395;50.738;7.122;2022-08-19T10:31:21;44.10;;;29.87;;
4762;SDS011;2395;50.738;7.122;2022-08-19T10:33:53;39.40;;;33.50;;
4762;SDS011;2395;50.738;7.122;2022-08-19T10:36:24;48.47;;;35.90;;
4762;SDS011;2395;50.738;7.122;2022-08-19T10:38:54;44.53;;;35.97;;
4762;SDS011;2395;50.738;7.122;2022-08-19T10:41:26;47.13;;;35.70;;
4762;SDS011;2395;50.738;7.122;2022-08-19T10:43:57;39.67;;;32.37;;
4762;SDS011;2395;50.738;7.122;2022-08-19T10:46:28;46.00;;;36.73;;
4762;SDS011;2395;50.738;7.122;2022-08-19T10:48:57;44.10;;;34.67;;
4762;SDS011;2395;50.738;7.122;2022-08-19T10:51:26;42.27;;;32.27;;
4762;SDS011;2395;50.738;7.122;2022-08-19T10:54:13;42.30;;;28.40;;
4762;SDS011;2395;50.738;7.122;2022-08-19T10:56:40;38.50;;;26.87;;
4762;SDS011;2395;50.738;7.122;2022-08-19T10:59:16;27.97;;;24.87;;
4762;SDS011;2395;50.738;7.122;2022-08-19T11:01:48;26.83;;;23.57;;
4762;SDS011;2395;50.738;7.122;2022-08-19T11:04:17;28.07;;;21.70;;
4762;SDS011;2395;50.738;7.122;2022-08-19T11:06:45;28.20;;;21.53;;
4762;SDS011;2395;50.738;7.122;2022-08-19T11:09:15;23.50;;;20.57;;
4762;SDS011;2395;50.738;7.122;2022-08-19T11:11:45;31.13;;;20.87;;
4762;SDS011;2395;50.738;7.122;2022-08-19T11:14:14;30.70;;;19.90;;
4762;SDS011;2395;50.738;7.122;2022-08-19T11:16:45;23.67;;;20.50;;
4762;SDS011;2395;50.738;7.122;2022-08-19T11:19:14;19.60;;;17.50;;
4762;SDS011;2395;50.738;7.122;2022-08-19T11:21:45;27.73;;;19.67;;
4762;SDS011;2395;50.738;7.122;2022-08-19T11:24:17;22.37;;;17.73;;
4762;SDS011;2395;50.738;7.122;2022-08-19T11:26:46;22.63;;;17.07;;
4762;SDS011;2395;50.738;7.122;2022-08-19T11:29:16;15.73;;;14.13;;
4762;SDS011;2395;50.738;7.122;2022-08-19T11:31:46;21.80;;;15.63;;
4762;SDS011;2395;50.738;7.122;2022-08-19T11:34:16;20.50;;;15.73;;
4762;SDS011;2395;50.738;7.122;2022-08-19T11:36:46;16.23;;;14.00;;
4762;SDS011;2395;50.738;7.122;2022-08-19T11:39:15;17.20;;;14.07;;
4762;SDS011;2395;50.738;7.122;2022-08-19T11:41:46;18.10;;;16.20;;
4762;SDS011;2395;50.738;7.122;2022-08-19T11:44:14;14.77;;;12.67;;
4762;SDS011;2395;50.738;7.122;2022-08-19T11:46:41;16.10;;;14.50;;
4762;SDS011;2395;50.738;7.122;2022-08-19T11:49:12;22.13;;;14.27;;
4762;SDS011;2395;50.738;7.122;2022-08-19T11:51:41;16.80;;;14.33;;
4762;SDS011;2395;50.738;7.122;2022-08-19T11:54:09;23.40;;;13.93;;
4762;SDS011;2395;50.738;7.122;2022-08-19T11:56:38;19.53;;;14.50;;
4762;SDS011;2395;50.738;7.122;2022-08-19T11:59:06;16.53;;;13.83;;
4762;SDS011;2395;50.738;7.122;2022-08-19T12:01:33;14.00;;;12.03;;
4762;SDS011;2395;50.738;7.122;2022-08-19T12:04:00;14.10;;;11.47;;
4762;SDS011;2395;50.738;7.122;2022-08-19T12:06:31;14.37;;;10.57;;
4762;SDS011;2395;50.738;7.122;2022-08-19T12:09:01;17.27;;;14.50;;
4762;SDS011;2395;50.738;7.122;2022-08-19T12:11:32;18.40;;;13.93;;
4762;SDS011;2395;50.738;7.122;2022-08-19T12:13:59;15.60;;;13.50;;
4762;SDS011;2395;50.738;7.122;2022-08-19T12:16:28;17.07;;;15.03;;
4762;SDS011;2395;50.738;7.122;2022-08-19T12:18:57;14.60;;;12.27;;
4762;SDS011;2395;50.738;7.122;2022-08-19T12:21:28;14.30;;;12.83;;
4762;SDS011;2395;50.738;7.122;2022-08-19T12:24:00;14.73;;;11.20;;
4762;SDS011;2395;50.738;7.122;2022-08-19T12:26:30;20.33;;;11.90;;
4762;SDS011;2395;50.738;7.122;2022-08-19T12:28:58;14.17;;;12.73;;
4762;SDS011;2395;50.738;7.122;2022-08-19T12:31:26;18.33;;;14.17;;
4762;SDS011;2395;50.738;7.122;2022-08-19T12:33:54;15.47;;;11.93;;
4762;SDS011;2395;50.738;7.122;2022-08-19T12:36:21;12.87;;;11.53;;
4762;SDS011;2395;50.738;7.122;2022-08-19T12:38:51;13.80;;;11.70;;
4762;SDS011;2395;50.738;7.122;2022-08-19T12:41:19;15.00;;;11.30;;
4762;SDS011;2395;50.738;7.122;2022-08-19T12:43:47;12.20;;;10.97;;
4762;SDS011;2395;50.738;7.122;2022-08-19T12:46:15;15.23;;;13.73;;
4762;SDS011;2395;50.738;7.122;2022-08-19T12:48:45;14.13;;;11.80;;
4762;SDS011;2395;50.738;7.122;2022-08-19T12:51:13;12.90;;;11.70;;
4762;SDS011;2395;50.738;7.122;2022-08-19T12:53:44;13.47;;;11.63;;
4762;SDS011;2395;50.738;7.122;2022-08-19T12:56:13;17.67;;;14.63;;
4762;SDS011;2395;50.738;7.122;2022-08-19T12:58:41;22.23;;;16.30;;
4762;SDS011;2395;50.738;7.122;2022-08-19T13:01:10;17.93;;;16.10;;
4762;SDS011;2395;50.738;7.122;2022-08-19T13:03:39;18.50;;;14.67;;
4762;SDS011;2395;50.738;7.122;2022-08-19T13:06:08;17.53;;;15.63;;
4762;SDS011;2395;50.738;7.122;2022-08-19T13:08:35;17.70;;;14.13;;
4762;SDS011;2395;50.738;7.122;2022-08-19T13:11:06;14.93;;;13.20;;
4762;SDS011;2395;50.738;7.122;2022-08-19T13:13:38;17.20;;;15.27;;
4762;SDS011;2395;50.738;7.122;2022-08-19T13:16:08;15.73;;;14.10;;
4762;SDS011;2395;50.738;7.122;2022-08-19T13:18:37;14.93;;;13.40;;
4762;SDS011;2395;50.738;7.122;2022-08-19T13:21:07;17.73;;;14.70;;
4762;SDS011;2395;50.738;7.122;2022-08-19T13:23:38;11.23;;;10.03;;
4762;SDS011;2395;50.738;7.122;2022-08-19T13:26:06;11.23;;;9.20;;
4762;SDS011;2395;50.738;7.122;2022-08-19T13:28:36;12.23;;;8.30;;
4762;SDS011;2395;50.738;7.122;2022-08-19T13:31:19;9.23;;;7.73;;
4762;SDS011;2395;50.738;7.122;2022-08-19T13:34:07;12.87;;;9.70;;
4762;SDS011;2395;50.738;7.122;2022-08-19T13:36:35;15.93;;;11.33;;
4762;SDS011;2395;50.738;7.122;2022-08-19T13:39:08;15.03;;;10.10;;
4762;SDS011;2395;50.738;7.122;2022-08-19T13:41:36;17.43;;;12.43;;
4762;SDS011;2395;50.738;7.122;2022-08-19T13:44:10;14.80;;;11.37;;
4762;SDS011;2395;50.738;7.122;2022-08-19T13:46:39;16.03;;;11.00;;
4762;SDS011;2395;50.738;7.122;2022-08-19T13:49:09;14.63;;;12.70;;
4762;SDS011;2395;50.738;7.122;2022-08-19T13:51:37;19.73;;;14.20;;
4762;SDS011;2395;50.738;7.122;2022-08-19T13:54:05;17.80;;;14.63;;
4762;SDS011;2395;50.738;7.122;2022-08-19T13:56:33;17.57;;;11.90;;
4762;SDS011;2395;50.738;7.122;2022-08-19T13:59:01;14.87;;;10.47;;
4762;SDS011;2395;50.738;7.122;2022-08-19T14:01:28;14.77;;;10.60;;
4762;SDS011;2395;50.738;7.122;2022-08-19T14:03:56;12.27;;;10.10;;
4762;SDS011;2395;50.738;7.122;2022-08-19T14:06:24;12.73;;;10.40;;
4762;SDS011;2395;50.738;7.122;2022-08-19T14:08:51;15.13;;;9.73;;
4762;SDS011;2395;50.738;7.122;2022-08-19T14:11:18;16.10;;;11.97;;
4762;SDS011;2395;50.738;7.122;2022-08-19T14:13:45;16.27;;;11.20;;
4762;SDS011;2395;50.738;7.122;2022-08-19T14:16:12;13.43;;;10.70;;
4762;SDS011;2395;50.738;7.122;2022-08-19T14:18:40;12.30;;;10.13;;
4762;SDS011;2395;50.738;7.122;2022-08-19T14:21:15;13.37;;;10.17;;
4762;SDS011;2395;50.738;7.122;2022-08-19T14:23:48;12.27;;;10.97;;
4762;SDS011;2395;50.738;7.122;2022-08-19T14:26:16;13.57;;;11.60;;
4762;SDS011;2395;50.738;7.122;2022-08-19T14:28:46;15.80;;;12.63;;
4762;SDS011;2395;50.738;7.122;2022-08-19T14:31:15;13.10;;;10.80;;
4762;SDS011;2395;50.738;7.122;2022-08-19T14:33:44;16.37;;;11.97;;
4762;SDS011;2395;50.738;7.122;2022-08-19T14:36:12;17.70;;;10.27;;
4762;SDS011;2395;50.738;7.122;2022-08-19T14:38:41;13.70;;;10.77;;
4762;SDS011;2395;50.738;7.122;2022-08-19T14:41:10;14.90;;;11.47;;
4762;SDS011;2395;50.738;7.122;2022-08-19T14:43:42;14.87;;;11.93;;
4762;SDS011;2395;50.738;7.122;2022-08-19T14:46:10;13.93;;;10.90;;
4762;SDS011;2395;50.738;7.122;2022-08-19T14:48:38;12.90;;;10.20;;
4762;SDS011;2395;50.738;7.122;2022-08-19T14:51:05;14.90;;;10.07;;
4762;SDS011;2395;50.738;7.122;2022-08-19T14:53:33;10.50;;;9.40;;
4762;SDS011;2395;50.738;7.122;2022-08-19T14:56:01;11.47;;;9.87;;
4762;SDS011;2395;50.738;7.122;2022-08-19T14:58:34;15.50;;;9.27;;
4762;SDS011;2395;50.738;7.122;2022-08-19T15:01:02;11.57;;;9.20;;
4762;SDS011;2395;50.738;7.122;2022-08-19T15:03:30;16.07;;;9.93;;